Time;durP1;ratioP1;P1;durP2;ratioP2;P2;SDS_P1;SDS_P2;PMS_P1;PMS_P2;Temp;Humidity;BMP_temperature;BMP_pressure;BME280_temperature;BME280_humidity;BME280_pressure;Samples;Min_cycle;Max_cycle;Signal;HPM_P1;HPM_P2
2023/03/10 00:02:29;;;;;;;3.38;1.20;;;;;;;7.62;100.00;95299.66;5070980;28;20040;-63
2023/03/10 00:04:56;;;;;;;5.78;1.38;;;;;;;7.63;100.00;95289.69;5072937;28;20055;-64
2023/03/10 00:07:22;;;;;;;2.95;1.25;;;;;;;7.58;100.00;95284.34;5069383;28;20047;-64
2023/03/10 00:09:49;;;;;;;8.27;1.35;;;;;;;7.55;100.00;95275.75;5067728;28;20044;-64
2023/03/10 00:12:15;;;;;;;4.68;1.52;;;;;;;7.51;100.00;95272.00;5068009;28;20044;-63
2023/03/10 00:14:42;;;;;;;6.28;1.35;;;;;;;7.49;100.00;95258.03;5075309;28;20044;-63
2023/03/10 00:17:08;;;;;;;3.70;1.40;;;;;;;7.46;100.00;95264.00;5069837;28;20090;-63
2023/03/10 00:19:35;;;;;;;3.95;1.23;;;;;;;7.46;100.00;95252.41;5071656;28;20102;-64
2023/03/10 00:22:02;;;;;;;4.40;1.40;;;;;;;7.48;100.00;95251.03;5073153;28;20113;-64
2023/03/10 00:24:29;;;;;;;4.00;1.15;;;;;;;7.42;100.00;95246.81;5067074;28;20036;-63
2023/03/10 00:26:55;;;;;;;5.07;1.52;;;;;;;7.42;100.00;95249.50;5064850;28;20048;-63
2023/03/10 00:29:22;;;;;;;5.78;1.55;;;;;;;7.44;100.00;95239.22;5075092;28;20119;-63
2023/03/10 00:31:49;;;;;;;5.30;1.45;;;;;;;7.41;100.00;95229.03;5071728;28;20036;-64
2023/03/10 00:34:16;;;;;;;5.47;1.45;;;;;;;7.53;100.00;95226.75;5069916;28;20123;-63
2023/03/10 00:36:42;;;;;;;5.22;1.90;;;;;;;7.62;100.00;95229.63;5064787;28;20036;-63
2023/03/10 00:39:09;;;;;;;3.97;1.20;;;;;;;7.74;100.00;95229.22;5065667;28;20036;-63
2023/03/10 00:41:40;;;;;;;3.13;1.25;;;;;;;7.68;100.00;95238.47;5066975;28;20046;-63
2023/03/10 00:44:09;;;;;;;3.72;1.23;;;;;;;7.79;100.00;95228.38;5066202;28;20101;-63
2023/03/10 00:46:39;;;;;;;4.95;1.27;;;;;;;7.93;100.00;95229.28;5089819;28;20135;-63
2023/03/10 00:49:14;;;;;;;4.72;1.08;;;;;;;8.10;97.54;95236.09;5071343;28;20037;-63
2023/03/10 00:51:40;;;;;;;5.22;0.90;;;;;;;8.03;99.49;95232.94;5071854;28;20075;-63
2023/03/10 00:54:08;;;;;;;3.83;1.20;;;;;;;7.96;99.12;95230.59;5072241;28;20409;-64
2023/03/10 00:56:35;;;;;;;3.47;1.27;;;;;;;7.90;100.00;95226.34;5066371;28;20044;-64
2023/03/10 00:59:02;;;;;;;3.05;0.82;;;;;;;7.90;99.67;95223.66;5073605;28;20491;-63
2023/03/10 01:01:34;;;;;;;5.10;1.20;;;;;;;7.80;100.00;95227.28;5072095;28;20036;-64
2023/03/10 01:04:05;;;;;;;5.03;1.17;;;;;;;7.74;100.00;95218.44;5076993;28;20107;-63
2023/03/10 01:06:33;;;;;;;4.85;1.13;;;;;;;7.64;100.00;95213.19;5077318;28;20052;-64
2023/03/10 01:09:00;;;;;;;3.55;1.10;;;;;;;7.62;100.00;95209.97;5075373;28;20036;-63
2023/03/10 01:11:28;;;;;;;5.45;1.20;;;;;;;7.54;100.00;95214.91;5072804;28;20036;-63
2023/03/10 01:13:58;;;;;;;3.40;1.05;;;;;;;7.55;100.00;95208.44;5075166;28;20058;-64
2023/03/10 01:16:26;;;;;;;6.28;1.50;;;;;;;7.56;100.00;95203.84;5079398;28;20438;-63
2023/03/10 01:18:54;;;;;;;3.33;0.98;;;;;;;7.63;100.00;95190.81;5076599;28;20119;-64
2023/03/10 01:21:28;;;;;;;4.82;1.05;;;;;;;7.60;100.00;95199.50;5075028;28;20048;-64
2023/03/10 01:23:54;;;;;;;5.40;1.45;;;;;;;7.47;100.00;95195.59;5078493;28;20044;-64
2023/03/10 01:26:21;;;;;;;3.25;1.00;;;;;;;7.66;100.00;95192.13;5076932;28;20032;-64
2023/03/10 01:28:49;;;;;;;2.60;1.20;;;;;;;7.58;100.00;95193.56;5072668;28;20047;-64
2023/03/10 01:31:16;;;;;;;4.80;1.33;;;;;;;7.56;100.00;95182.31;5072250;28;20184;-64
2023/03/10 01:33:44;;;;;;;3.78;1.05;;;;;;;7.64;100.00;95181.69;5069443;28;20056;-64
2023/03/10 01:36:16;;;;;;;3.60;1.00;;;;;;;7.68;100.00;95179.97;5079862;28;20491;-64
2023/03/10 01:38:45;;;;;;;4.65;1.23;;;;;;;7.80;99.66;95182.28;5071553;28;20461;-63
2023/03/10 01:41:12;;;;;;;3.83;1.58;;;;;;;7.92;99.20;95173.78;5070963;28;20047;-63
2023/03/10 01:43:41;;;;;;;1.85;0.90;;;;;;;7.92;99.66;95171.09;5068289;28;20044;-64
2023/03/10 01:46:25;;;;;;;2.65;1.08;;;;;;;7.81;100.00;95162.34;5064527;28;20119;-63
2023/03/10 01:48:56;;;;;;;2.17;0.93;;;;;;;7.77;100.00;95164.00;5071317;28;20040;-63
2023/03/10 01:51:23;;;;;;;7.68;1.20;;;;;;;7.73;100.00;95159.47;5071579;28;20043;-64
2023/03/10 01:53:50;;;;;;;5.07;1.35;;;;;;;7.73;100.00;95157.59;5067993;28;20278;-63
2023/03/10 01:56:16;;;;;;;3.28;0.90;;;;;;;7.72;100.00;95156.00;5073378;28;20097;-63
2023/03/10 01:58:46;;;;;;;6.18;1.40;;;;;;;7.68;100.00;95144.97;5067919;28;20087;-63
2023/03/10 02:01:15;;;;;;;3.03;1.00;;;;;;;7.67;100.00;95145.28;5075303;28;20051;-63
2023/03/10 02:03:48;;;;;;;4.28;1.40;;;;;;;7.69;100.00;95143.09;5065242;28;20044;-63
2023/03/10 02:06:18;;;;;;;2.53;1.00;;;;;;;7.66;100.00;95141.78;5076597;28;20036;-63
2023/03/10 02:08:50;;;;;;;3.80;1.13;;;;;;;7.71;100.00;95132.84;5069245;28;20048;-63
2023/03/10 02:11:18;;;;;;;;;;;;;;;7.76;100.00;95132.78;5075210;28;20045;-63
2023/03/10 02:13:45;;;;;;;4.72;1.08;;;;;;;7.71;100.00;95135.53;5070150;28;19924;-63
2023/03/10 02:16:14;;;;;;;3.03;1.10;;;;;;;7.70;100.00;95136.59;5074149;28;20115;-63
2023/03/10 02:18:44;;;;;;;2.75;0.95;;;;;;;7.65;100.00;95134.78;5072779;28;20097;-63
2023/03/10 02:21:29;;;;;;;3.75;0.93;;;;;;;7.63;100.00;95123.50;5070241;28;20747;-63
2023/03/10 02:24:17;;;;;;;3.63;0.90;;;;;;;7.63;100.00;95118.09;5071137;28;20039;-63
2023/03/10 02:26:55;;;;;;;3.80;0.70;;;;;;;7.63;100.00;95128.09;5069822;28;20052;-63
2023/03/10 02:29:42;;;;;;;0.88;0.55;;;;;;;7.60;100.00;95113.31;5072673;28;20039;-63
2023/03/10 02:32:25;;;;;;;1.70;0.77;;;;;;;7.53;100.00;95118.25;5062460;28;20048;-63
2023/03/10 02:34:51;;;;;;;1.70;0.77;;;;;;;7.55;100.00;95126.81;5068611;28;20095;-63
2023/03/10 02:37:21;;;;;;;3.72;0.85;;;;;;;7.57;100.00;95113.06;5063494;28;20036;-63
2023/03/10 02:39:48;;;;;;;1.42;0.43;;;;;;;7.58;100.00;95109.28;5068904;28;20048;-63
2023/03/10 02:42:16;;;;;;;2.67;0.75;;;;;;;7.53;100.00;95102.09;5076588;28;20040;-63
2023/03/10 02:44:44;;;;;;;1.70;0.65;;;;;;;7.56;100.00;95096.13;5072178;28;20032;-63
2023/03/10 02:47:11;;;;;;;1.52;0.70;;;;;;;7.52;100.00;95085.13;5062743;28;20048;-63
2023/03/10 02:49:39;;;;;;;3.08;0.70;;;;;;;7.59;100.00;95084.75;5067676;28;20457;-63
2023/03/10 02:52:13;;;;;;;4.53;0.80;;;;;;;7.66;100.00;95076.31;5072968;28;20090;-63
2023/03/10 02:54:40;;;;;;;1.30;0.50;;;;;;;7.65;100.00;95078.22;5076359;28;20101;-64
2023/03/10 02:57:07;;;;;;;0.98;0.50;;;;;;;7.64;100.00;95084.72;5076862;28;20052;-63
2023/03/10 02:59:34;;;;;;;0.95;0.43;;;;;;;7.63;100.00;95085.78;5064869;28;20040;-63
2023/03/10 03:02:00;;;;;;;1.55;0.50;;;;;;;7.65;100.00;95093.56;5074187;28;20035;-63
2023/03/10 03:04:27;;;;;;;1.10;0.47;;;;;;;7.65;100.00;95088.19;5066016;28;20040;-63
2023/03/10 03:06:54;;;;;;;3.53;0.80;;;;;;;7.73;100.00;95089.44;5067533;28;20093;-63
2023/03/10 03:09:21;;;;;;;1.08;0.43;;;;;;;7.79;100.00;95099.88;5075552;28;20484;-63
2023/03/10 03:11:47;;;;;;;3.90;0.88;;;;;;;7.77;100.00;95085.06;5072200;28;20131;-63
2023/03/10 03:14:15;;;;;;;2.15;0.80;;;;;;;7.67;100.00;95086.81;5072111;28;20042;-63
2023/03/10 03:16:46;;;;;;;0.80;0.30;;;;;;;7.70;100.00;95071.16;5074861;28;20040;-63
2023/03/10 03:19:14;;;;;;;5.15;1.05;;;;;;;7.66;100.00;95077.13;5069549;28;20032;-63
2023/03/10 03:21:41;;;;;;;2.72;0.70;;;;;;;7.65;100.00;95062.06;5072665;28;20044;-63
2023/03/10 03:24:08;;;;;;;1.17;0.50;;;;;;;7.60;100.00;95069.41;5071142;28;20064;-63
2023/03/10 03:26:35;;;;;;;1.52;0.60;;;;;;;7.61;100.00;95066.44;5070124;28;20063;-63
2023/03/10 03:29:12;;;;;;;1.00;0.55;;;;;;;7.55;100.00;95051.41;5070372;28;20506;-63
2023/03/10 03:31:40;;;;;;;2.35;0.70;;;;;;;7.52;100.00;95039.34;5070518;28;20117;-63
2023/03/10 03:34:19;;;;;;;2.53;0.60;;;;;;;7.51;100.00;95031.53;5077092;28;20595;-63
2023/03/10 03:36:47;;;;;;;1.65;0.70;;;;;;;7.41;100.00;95033.28;5077167;28;20047;-63
2023/03/10 03:39:18;;;;;;;1.80;0.68;;;;;;;7.46;100.00;95027.03;5068015;28;20039;-63
2023/03/10 03:41:52;;;;;;;3.25;0.57;;;;;;;7.46;100.00;95029.75;5074430;28;20682;-63
2023/03/10 03:44:19;;;;;;;1.08;0.52;;;;;;;7.41;100.00;95033.28;5075993;28;20040;-63
2023/03/10 03:46:47;;;;;;;2.78;0.73;;;;;;;7.41;100.00;95035.19;5069631;28;20319;-63
2023/03/10 03:49:13;;;;;;;1.20;0.55;;;;;;;7.48;100.00;95029.44;5069384;28;20036;-63
2023/03/10 03:51:41;;;;;;;1.63;0.65;;;;;;;7.51;100.00;95031.53;5073776;28;20135;-63
2023/03/10 03:54:08;;;;;;;1.63;0.60;;;;;;;7.49;100.00;95020.28;5074402;28;20140;-63
2023/03/10 03:56:37;;;;;;;0.68;0.65;;;;;;;7.51;100.00;95028.84;5076371;28;20040;-63
2023/03/10 03:59:04;;;;;;;0.82;0.50;;;;;;;7.53;100.00;95024.00;5074141;28;20063;-63
2023/03/10 04:01:31;;;;;;;1.27;0.45;;;;;;;7.47;100.00;95017.06;5072478;28;20071;-63
2023/03/10 04:03:59;;;;;;;2.20;0.80;;;;;;;7.37;100.00;95018.81;5075546;28;20040;-63
2023/03/10 04:06:26;;;;;;;1.65;0.70;;;;;;;7.51;100.00;95029.66;5066494;28;20066;-63
2023/03/10 04:08:53;;;;;;;1.10;0.50;;;;;;;7.56;100.00;95018.03;5067991;28;20051;-63
2023/03/10 04:11:22;;;;;;;1.75;0.63;;;;;;;7.50;100.00;95013.78;5069742;28;20109;-63
2023/03/10 04:13:49;;;;;;;3.05;0.77;;;;;;;7.44;100.00;95013.06;5070933;28;20522;-63
2023/03/10 04:16:16;;;;;;;0.98;0.65;;;;;;;7.50;100.00;95013.78;5070249;28;20044;-63
2023/03/10 04:18:44;;;;;;;1.60;0.60;;;;;;;7.50;100.00;95013.78;5068879;28;20060;-63
2023/03/10 04:21:13;;;;;;;2.78;0.60;;;;;;;7.46;100.00;95027.03;5071244;28;20076;-63
2023/03/10 04:23:41;;;;;;;2.45;0.60;;;;;;;7.50;100.00;95028.06;5074676;28;20094;-63
2023/03/10 04:26:10;;;;;;;1.25;0.57;;;;;;;7.42;100.00;95013.34;5077346;28;20101;-63
2023/03/10 04:28:38;;;;;;;1.80;0.50;;;;;;;7.44;100.00;95014.97;5073591;28;20580;-63
2023/03/10 04:31:13;;;;;;;1.92;0.50;;;;;;;7.40;100.00;95025.50;5072550;28;20044;-63
2023/03/10 04:33:40;;;;;;;1.27;0.50;;;;;;;7.33;100.00;95019.69;5076866;28;20040;-63
2023/03/10 04:36:08;;;;;;;3.05;0.80;;;;;;;7.39;100.00;95035.47;5075555;28;20445;-63
2023/03/10 04:38:35;;;;;;;2.33;0.82;;;;;;;7.39;100.00;95032.78;5068320;28;20138;-63
2023/03/10 04:41:03;;;;;;;1.35;0.50;;;;;;;7.44;100.00;95029.22;5075990;28;20131;-63
2023/03/10 04:43:36;;;;;;;3.97;0.70;;;;;;;7.41;100.00;95027.91;5070599;28;20063;-64
2023/03/10 04:46:03;;;;;;;1.15;0.55;;;;;;;7.52;100.00;95030.47;5078978;28;20069;-63
2023/03/10 04:48:30;;;;;;;2.42;0.70;;;;;;;7.49;100.00;95020.28;5069954;28;20036;-63
2023/03/10 04:51:00;;;;;;;5.03;2.05;;;;;;;7.42;100.00;95010.66;5071657;28;20119;-64
2023/03/10 04:53:33;;;;;;;3.42;1.35;;;;;;;7.33;100.00;94995.47;5067611;28;20071;-64
2023/03/10 04:56:02;;;;;;;3.05;0.65;;;;;;;7.36;100.00;95000.25;5072952;28;20051;-64
2023/03/10 04:58:30;;;;;;;1.85;0.63;;;;;;;7.31;100.00;95005.69;5064043;28;20044;-63
2023/03/10 05:00:57;;;;;;;0.63;0.40;;;;;;;7.42;100.00;95010.66;5072502;28;20036;-63
2023/03/10 05:03:33;;;;;;;3.13;0.73;;;;;;;7.29;100.00;94997.91;5068685;28;20051;-63
2023/03/10 05:06:00;;;;;;;4.28;1.63;;;;;;;7.08;100.00;94998.16;5081411;28;20401;-63
2023/03/10 05:08:27;;;;;;;4.38;1.60;;;;;;;6.88;100.00;95007.28;5071840;28;20036;-63
2023/03/10 05:10:54;;;;;;;3.58;2.05;;;;;;;6.86;100.00;94996.03;5073830;28;20036;-64
2023/03/10 05:13:21;;;;;;;2.45;0.80;;;;;;;6.67;100.00;94996.75;5080385;28;20051;-64
2023/03/10 05:15:47;;;;;;;1.55;0.70;;;;;;;6.58;100.00;94987.72;5085513;28;20093;-64
2023/03/10 05:18:15;;;;;;;1.33;0.70;;;;;;;6.38;100.00;94981.47;5075973;28;20052;-64
2023/03/10 05:20:41;;;;;;;1.27;0.50;;;;;;;6.23;100.00;94977.84;5077126;28;20121;-64
2023/03/10 05:23:08;;;;;;;5.18;1.50;;;;;;;6.20;100.00;94973.00;5076181;28;20059;-64
2023/03/10 05:25:35;;;;;;;2.35;1.05;;;;;;;6.03;100.00;94977.97;5085929;28;20061;-64
2023/03/10 05:28:01;;;;;;;4.60;1.40;;;;;;;6.02;100.00;94968.31;5087141;28;20400;-64
2023/03/10 05:30:29;;;;;;;1.65;0.70;;;;;;;6.06;100.00;94966.72;5083605;28;20041;-63
2023/03/10 05:32:56;;;;;;;2.78;0.80;;;;;;;6.16;100.00;94973.88;5089394;28;20082;-63
2023/03/10 05:35:23;;;;;;;3.08;0.70;;;;;;;6.18;100.00;94975.19;5087227;28;20040;-63
2023/03/10 05:37:50;;;;;;;2.25;0.77;;;;;;;6.22;100.00;94978.09;5082867;28;20136;-63
2023/03/10 05:40:20;;;;;;;0.77;0.47;;;;;;;6.22;100.00;94983.47;5088253;28;20097;-63
2023/03/10 05:42:47;;;;;;;2.22;0.52;;;;;;;6.20;100.00;94986.44;5084046;28;20048;-63
2023/03/10 05:45:15;;;;;;;1.48;0.50;;;;;;;6.19;100.00;94995.59;5081504;28;20051;-64
2023/03/10 05:47:42;;;;;;;1.83;0.70;;;;;;;6.26;100.00;94991.81;5081631;28;20136;-64
2023/03/10 05:50:10;;;;;;;1.92;0.68;;;;;;;6.26;100.00;95000.66;5076554;28;20041;-64
2023/03/10 05:52:38;;;;;;;3.20;0.80;;;;;;;6.30;100.00;94985.56;5078768;28;20047;-64
2023/03/10 05:55:09;;;;;;;2.22;0.70;;;;;;;6.30;100.00;94982.09;5084597;28;20047;-64
2023/03/10 05:57:36;;;;;;;2.28;0.90;;;;;;;6.32;100.00;94980.72;5078057;28;20090;-63
2023/03/10 06:00:04;;;;;;;1.98;0.90;;;;;;;6.53;100.00;94972.44;5078810;28;20036;-63
2023/03/10 06:02:39;;;;;;;2.15;1.13;;;;;;;6.64;100.00;94967.75;5084871;28;20060;-64
2023/03/10 06:05:08;;;;;;;2.75;0.77;;;;;;;6.70;100.00;94965.78;5087234;27;20047;-63
2023/03/10 06:07:37;;;;;;;1.73;0.65;;;;;;;6.78;100.00;94965.16;5085058;28;20044;-63
2023/03/10 06:10:04;;;;;;;2.92;0.90;;;;;;;6.92;100.00;94965.28;5081124;28;20040;-63
2023/03/10 06:12:32;;;;;;;3.45;0.90;;;;;;;6.98;100.00;94953.38;5082474;28;20048;-63
2023/03/10 06:14:58;;;;;;;5.43;1.00;;;;;;;6.98;100.00;94920.28;5074480;28;20040;-64
2023/03/10 06:17:25;;;;;;;4.50;0.70;;;;;;;7.03;100.00;94906.75;5087666;28;20067;-64
2023/03/10 06:19:52;;;;;;;2.25;0.70;;;;;;;7.07;100.00;94880.09;5086975;28;20438;-64
2023/03/10 06:22:18;;;;;;;5.20;0.70;;;;;;;7.13;100.00;94889.66;5074564;28;20125;-64
2023/03/10 06:24:45;;;;;;;1.27;0.50;;;;;;;7.11;100.00;94889.94;5068153;28;20051;-61
2023/03/10 06:27:11;;;;;;;2.25;0.63;;;;;;;7.09;100.00;94889.47;5080005;28;20044;-61
2023/03/10 06:29:37;;;;;;;2.70;0.65;;;;;;;7.16;100.00;94922.16;5077789;28;20086;-61
2023/03/10 06:32:04;;;;;;;2.53;0.70;;;;;;;7.26;100.00;94915.06;5079454;28;20105;-59
2023/03/10 06:34:31;;;;;;;2.33;0.57;;;;;;;7.48;100.00;94916.38;5092171;28;20414;-59
2023/03/10 06:36:57;;;;;;;2.10;0.60;;;;;;;7.57;100.00;94911.09;5069371;28;20164;-60
2023/03/10 06:39:27;;;;;;;5.20;0.82;;;;;;;7.46;100.00;94905.88;5077101;28;20035;-59
2023/03/10 06:41:54;;;;;;;2.35;0.77;;;;;;;7.31;100.00;94900.72;5074187;28;20047;-59
2023/03/10 06:44:20;;;;;;;2.30;0.98;;;;;;;7.36;100.00;94911.41;5069028;28;20089;-59
2023/03/10 06:46:47;;;;;;;3.85;1.00;;;;;;;7.39;100.00;94917.03;5079896;28;20540;-59
2023/03/10 06:49:13;;;;;;;1.77;0.80;;;;;;;7.28;100.00;94908.31;5074847;28;20579;-56
2023/03/10 06:51:40;;;;;;;4.25;0.90;;;;;;;7.19;100.00;94904.63;5074161;28;20550;-59
2023/03/10 06:54:06;;;;;;;2.35;0.68;;;;;;;7.22;100.00;94903.28;5076309;28;20044;-58
2023/03/10 06:56:33;;;;;;;2.28;0.70;;;;;;;7.44;100.00;94904.56;5075201;28;20139;-60
2023/03/10 06:59:00;;;;;;;1.27;0.60;;;;;;;7.47;100.00;94898.59;5068587;28;20049;-60
2023/03/10 07:01:27;;;;;;;1.83;0.75;;;;;;;7.31;100.00;94906.91;5076365;28;20131;-60
2023/03/10 07:03:55;;;;;;;1.65;0.50;;;;;;;7.26;100.00;94898.91;5080454;28;20044;-60
2023/03/10 07:06:22;;;;;;;2.13;0.50;;;;;;;7.23;100.00;94899.50;5071005;28;20102;-59
2023/03/10 07:08:49;;;;;;;1.20;0.45;;;;;;;7.19;100.00;94891.19;5080367;28;20672;-60
2023/03/10 07:11:16;;;;;;;0.77;0.50;;;;;;;7.19;100.00;94893.09;5076459;28;20781;-60
2023/03/10 07:13:43;;;;;;;3.80;0.75;;;;;;;7.23;99.73;94892.19;5090852;28;20048;-59
2023/03/10 07:16:10;;;;;;;1.40;0.32;;;;;;;7.24;99.42;94893.00;5085212;28;20039;-59
2023/03/10 07:18:36;;;;;;;2.40;0.50;;;;;;;7.18;99.86;94886.13;5082588;28;20641;-60
2023/03/10 07:21:08;;;;;;;2.58;0.70;;;;;;;7.08;100.00;94905.88;5078952;28;20100;-60
2023/03/10 07:23:34;;;;;;;;;;;;;;;7.03;100.00;94909.44;5078217;28;20040;-60
2023/03/10 07:26:02;;;;;;;0.60;0.40;;;;;;;7.01;100.00;94915.09;5090227;28;19957;-59
2023/03/10 07:28:29;;;;;;;1.90;0.65;;;;;;;6.99;100.00;94916.50;5076762;28;20115;-60
2023/03/10 07:30:56;;;;;;;1.40;0.60;;;;;;;7.11;100.00;94922.25;5092108;28;20040;-59
2023/03/10 07:33:23;;;;;;;1.55;0.40;;;;;;;7.14;100.00;94921.69;5080176;28;20035;-60
2023/03/10 07:35:49;;;;;;;1.02;0.57;;;;;;;7.27;100.00;94919.34;5086056;28;20779;-60
2023/03/10 07:38:16;;;;;;;1.25;0.43;;;;;;;7.35;100.00;94918.69;5077192;28;20063;-60
2023/03/10 07:40:42;;;;;;;0.77;0.40;;;;;;;7.51;100.00;94908.50;5078407;28;20067;-59
2023/03/10 07:43:09;;;;;;;2.38;0.52;;;;;;;7.47;100.00;94918.25;5079738;28;20568;-59
2023/03/10 07:45:37;;;;;;;1.60;0.60;;;;;;;7.51;100.00;94921.94;5080634;28;20044;-59
2023/03/10 07:48:04;;;;;;;2.42;0.45;;;;;;;7.46;100.00;94919.34;5076921;28;20060;-58
2023/03/10 07:50:30;;;;;;;0.63;0.40;;;;;;;7.42;100.00;94927.19;5084626;28;20074;-58
2023/03/10 07:52:57;;;;;;;1.05;0.40;;;;;;;7.40;100.00;94932.06;5084680;28;20042;-58
2023/03/10 07:55:23;;;;;;;1.85;0.70;;;;;;;7.41;100.00;94922.13;5075929;28;20103;-59
2023/03/10 07:57:50;;;;;;;1.83;0.50;;;;;;;7.43;100.00;94928.00;5079793;28;20032;-58
2023/03/10 08:00:17;;;;;;;2.33;0.65;;;;;;;7.63;100.00;94926.88;5088027;28;20058;-59
2023/03/10 08:02:44;;;;;;;2.80;0.50;;;;;;;7.72;100.00;94942.38;5086476;28;20524;-59
2023/03/10 08:05:10;;;;;;;1.58;0.50;;;;;;;7.68;100.00;94942.94;5075637;28;20043;-58
2023/03/10 08:07:37;;;;;;;1.48;0.50;;;;;;;7.85;98.89;94957.00;5082714;28;20348;-57
2023/03/10 08:10:05;;;;;;;1.35;0.63;;;;;;;7.77;99.01;94971.91;5085114;28;20216;-59
2023/03/10 08:12:32;;;;;;;1.30;0.40;;;;;;;7.67;95.99;94989.84;5080473;28;20558;-57
2023/03/10 08:14:59;;;;;;;0.45;0.30;;;;;;;7.55;97.10;94970.63;5081697;28;20105;-59
2023/03/10 08:17:29;;;;;;;3.75;0.50;;;;;;;7.60;93.75;95005.59;5084850;28;20549;-58
2023/03/10 08:19:57;;;;;;;1.50;0.60;;;;;;;7.41;93.13;94987.50;5088374;28;20027;-58
2023/03/10 08:22:24;;;;;;;0.90;0.20;;;;;;;7.39;92.99;94978.13;5088815;28;20036;-58
2023/03/10 08:24:51;;;;;;;0.20;0.20;;;;;;;7.51;94.21;94969.59;5085097;28;20043;-59
2023/03/10 08:27:18;;;;;;;0.80;0.22;;;;;;;7.71;92.67;94978.50;5082809;28;20071;-59
2023/03/10 08:29:45;;;;;;;0.57;0.13;;;;;;;7.76;95.00;94991.88;5078280;28;20040;-58
2023/03/10 08:32:11;;;;;;;2.95;0.50;;;;;;;7.63;97.31;94993.44;5083976;28;20040;-58
2023/03/10 08:34:38;;;;;;;3.88;0.63;;;;;;;7.57;98.86;95010.75;5086895;28;20040;-59
2023/03/10 08:37:05;;;;;;;1.35;0.50;;;;;;;7.32;99.81;94994.66;5082907;28;20044;-59
2023/03/10 08:39:32;;;;;;;1.58;0.47;;;;;;;7.32;99.91;94986.56;5082929;28;20197;-58
2023/03/10 08:41:58;;;;;;;2.47;0.40;;;;;;;7.44;99.77;94974.59;5080471;28;20039;-59
2023/03/10 08:44:25;;;;;;;3.33;0.57;;;;;;;7.59;99.24;94970.88;5076816;28;20103;-59
2023/03/10 08:46:51;;;;;;;4.25;0.82;;;;;;;7.79;97.75;94969.75;5087464;28;20052;-57
2023/03/10 08:49:20;;;;;;;2.78;0.80;;;;;;;8.09;96.42;94962.25;5088586;28;20040;-59
2023/03/10 08:51:47;;;;;;;4.50;0.60;;;;;;;8.22;95.47;94968.75;5079377;28;20044;-58
2023/03/10 08:54:17;;;;;;;1.27;0.28;;;;;;;8.43;92.45;94968.41;5077097;28;20141;-59
2023/03/10 08:56:44;;;;;;;3.17;0.50;;;;;;;8.71;92.51;94971.97;5086141;28;20044;-58
2023/03/10 08:59:10;;;;;;;2.53;0.30;;;;;;;8.80;90.64;94977.47;5079573;28;20039;-58
2023/03/10 09:01:38;;;;;;;2.50;0.52;;;;;;;8.96;91.20;94975.25;5086408;28;20056;-57
2023/03/10 09:04:07;;;;;;;1.50;0.40;;;;;;;9.09;90.17;94981.78;5086047;28;20032;-59
2023/03/10 09:06:33;;;;;;;2.13;0.60;;;;;;;9.16;88.02;94984.06;5086735;28;20044;-58
2023/03/10 09:09:01;;;;;;;1.95;0.63;;;;;;;9.17;87.89;94980.25;5083961;28;20067;-59
2023/03/10 09:11:31;;;;;;;3.08;0.60;;;;;;;9.08;87.23;94982.88;5080537;28;20559;-58
2023/03/10 09:13:59;;;;;;;6.68;0.85;;;;;;;9.00;88.09;94994.38;5094719;28;20047;-57
2023/03/10 09:16:27;;;;;;;3.35;0.55;;;;;;;9.01;89.17;94989.75;5080645;28;20578;-59
2023/03/10 09:18:58;;;;;;;2.80;0.45;;;;;;;9.12;88.04;94996.56;5082449;28;20118;-58
2023/03/10 09:21:26;;;;;;;3.78;0.60;;;;;;;9.26;87.77;95007.34;5088429;28;20044;-58
2023/03/10 09:23:52;;;;;;;3.38;0.75;;;;;;;9.14;87.17;95005.13;5082470;28;20128;-57
2023/03/10 09:26:20;;;;;;;1.85;0.20;;;;;;;8.77;88.25;95028.53;5084648;28;20691;-58
2023/03/10 09:28:49;;;;;;;3.08;0.40;;;;;;;8.61;89.72;95015.31;5089753;28;20123;-58
2023/03/10 09:31:19;;;;;;;1.85;0.32;;;;;;;8.73;89.84;95014.06;5086580;28;20044;-58
2023/03/10 09:33:46;;;;;;;2.88;0.47;;;;;;;8.59;91.11;95029.09;5085658;28;20114;-58
2023/03/10 09:36:15;;;;;;;2.95;0.30;;;;;;;8.39;94.99;95024.03;5080244;28;20040;-59
2023/03/10 09:38:42;;;;;;;2.65;0.75;;;;;;;8.13;99.04;95030.66;5089944;28;20068;-58
2023/03/10 09:41:36;;;;;;;5.25;0.70;;;;;;;8.28;99.67;95026.09;5090389;28;20092;-56
2023/03/10 09:44:25;;;;;;;1.92;0.40;;;;;;;8.12;100.00;95034.47;5080282;28;20137;-58
2023/03/10 09:47:29;;;;;;;2.83;0.63;;;;;;;8.14;100.00;95024.16;5085965;28;20052;-58
2023/03/10 09:50:18;;;;;;;1.00;0.35;;;;;;;8.34;100.00;95016.84;5093654;28;20578;-59
2023/03/10 09:53:00;;;;;;;5.55;0.60;;;;;;;8.49;100.00;95015.78;5084302;28;20125;-58
2023/03/10 09:55:32;;;;;;;1.13;0.52;;;;;;;8.40;100.00;95023.75;5086246;28;20119;-59
2023/03/10 09:58:00;;;;;;;2.58;0.75;;;;;;;8.51;100.00;95015.50;5087298;28;20035;-59
2023/03/10 10:00:37;;;;;;;5.28;1.27;;;;;;;8.35;100.00;95015.75;5088289;28;20035;-58
2023/03/10 10:03:15;;;;;;;4.93;0.90;;;;;;;8.14;100.00;95021.47;5077030;28;20100;-57
2023/03/10 10:05:43;;;;;;;3.47;0.60;;;;;;;8.17;100.00;95018.19;5084437;28;20067;-59
2023/03/10 10:08:41;;;;;;;2.08;0.60;;;;;;;8.05;100.00;95024.06;5088246;28;20086;-59
2023/03/10 10:11:16;;;;;;;1.50;0.60;;;;;;;8.04;100.00;95024.34;5083226;28;20064;-55
2023/03/10 10:13:42;;;;;;;4.53;0.70;;;;;;;8.01;100.00;95012.25;5089508;28;20044;-59
2023/03/10 10:16:25;;;;;;;1.73;0.60;;;;;;;8.04;100.00;95016.25;5082335;28;20515;-56
2023/03/10 10:19:24;;;;;;;3.95;0.80;;;;;;;8.09;100.00;95024.25;5083213;28;20044;-58
2023/03/10 10:22:07;;;;;;;3.75;0.60;;;;;;;8.17;100.00;95020.88;5084884;28;20395;-57
2023/03/10 10:24:34;;;;;;;2.20;0.60;;;;;;;8.06;100.00;95022.13;5078828;28;20067;-56
2023/03/10 10:27:00;;;;;;;3.35;0.77;;;;;;;7.93;100.00;95013.69;5083280;28;20050;-58
2023/03/10 10:29:33;;;;;;;3.28;0.80;;;;;;;7.92;100.00;95020.19;5084698;28;20040;-55
2023/03/10 10:32:01;;;;;;;2.53;0.45;;;;;;;7.97;100.00;95016.63;5086669;28;20050;-60
2023/03/10 10:34:28;;;;;;;3.30;0.68;;;;;;;8.15;100.00;95022.28;5093866;28;20044;-55
2023/03/10 10:36:55;;;;;;;1.95;0.75;;;;;;;8.08;100.00;95022.66;5082629;28;20088;-57
2023/03/10 10:39:30;;;;;;;1.13;0.32;;;;;;;8.03;99.92;95022.72;5087866;28;20097;-56
2023/03/10 10:42:23;;;;;;;1.40;0.40;;;;;;;8.05;100.00;95023.25;5080482;28;20035;-57
2023/03/10 10:44:55;;;;;;;2.33;0.50;;;;;;;8.13;100.00;95017.19;5081874;28;20128;-55
2023/03/10 10:47:35;;;;;;;2.88;0.68;;;;;;;8.36;100.00;95020.03;5084149;28;20094;-59
2023/03/10 10:50:20;;;;;;;2.55;0.50;;;;;;;8.50;100.00;95030.06;5075646;28;20118;-59
2023/03/10 10:52:49;;;;;;;3.05;0.70;;;;;;;8.74;100.00;95023.75;5088456;28;20426;-58
2023/03/10 10:55:33;;;;;;;1.85;0.45;;;;;;;8.63;100.00;95023.94;5080564;28;20044;-58
2023/03/10 10:58:02;;;;;;;1.92;0.38;;;;;;;8.59;100.00;95022.94;5082114;28;20067;-59
2023/03/10 11:00:38;;;;;;;0.77;0.40;;;;;;;8.56;100.00;95028.91;5080659;28;20036;-58
2023/03/10 11:03:39;;;;;;;4.03;0.52;;;;;;;8.61;100.00;95028.00;5074635;28;20582;-59
2023/03/10 11:06:13;;;;;;;1.38;0.70;;;;;;;8.62;100.00;95024.22;5079616;28;20144;-58
2023/03/10 11:08:43;;;;;;;2.88;0.68;;;;;;;8.59;100.00;95033.72;5074828;28;20624;-55
2023/03/10 11:11:38;;;;;;;2.15;0.65;;;;;;;8.60;100.00;95024.53;5078366;28;20132;-59
2023/03/10 11:14:20;;;;;;;1.45;0.50;;;;;;;8.68;100.00;95031.94;5083938;28;20460;-57
2023/03/10 11:17:23;;;;;;;2.35;0.50;;;;;;;8.60;100.00;95038.00;5081887;28;20055;-55
2023/03/10 11:20:08;;;;;;;2.83;0.50;;;;;;;8.62;100.00;95043.13;5087773;28;20040;-58
2023/03/10 11:23:03;;;;;;;2.70;0.60;;;;;;;8.65;100.00;95032.50;5078189;28;20072;-59
2023/03/10 11:25:52;;;;;;;2.55;0.52;;;;;;;8.73;100.00;95041.03;5076500;28;20059;-58
2023/03/10 11:28:35;;;;;;;2.95;0.73;;;;;;;8.65;100.00;95045.19;5077371;28;20056;-57
2023/03/10 11:31:39;;;;;;;2.28;0.60;;;;;;;8.64;100.00;95043.59;5082298;28;20127;-59
2023/03/10 11:34:18;;;;;;;2.78;0.50;;;;;;;8.52;100.00;95050.22;5057434;28;20096;-58
2023/03/10 11:36:51;;;;;;;2.45;1.02;;;;;;;8.52;100.00;95052.94;5076244;28;20048;-58
2023/03/10 11:39:44;;;;;;;1.05;0.45;;;;;;;8.58;100.00;95056.38;5081135;28;20117;-58
2023/03/10 11:42:13;;;;;;;1.33;0.50;;;;;;;8.63;100.00;95040.13;5077723;28;20496;-59
2023/03/10 11:44:51;;;;;;;1.88;0.45;;;;;;;8.81;100.00;95045.75;5078456;28;20048;-55
2023/03/10 11:47:25;;;;;;;0.77;0.40;;;;;;;8.90;99.65;95040.44;5081427;28;20452;-56
2023/03/10 11:50:14;;;;;;;1.00;0.40;;;;;;;8.76;99.27;95053.91;5084052;28;20044;-57
2023/03/10 11:52:42;;;;;;;1.10;0.50;;;;;;;8.90;100.00;95037.75;5083562;28;20143;-58